Glencoe, Canada
Current Conditions -  °F | °C
As of 2:00 PM on Thursday 30 Oct 2014 (Local Time) from CYXU Reporting Station
Overcast Overcast  
Wind Chill: 42°   Ceiling: 3500
Heat Index: 46°   Visibility: 15mi
Dew Point: 36°   Wind: 9mph
Humidity: 66%   Direction: 300°WNW
Pressure: 30.07"   Gusts: NA
Location:  42.75°N, 81.7°W
Report Text: CYXU 301800Z 30008KT 250V330 15SM BKN035 OVC220 08/02 A3007 RMK SC7CI1 SLP190
Loading
Personal Weather Stations






























Interactive Weather Map
Tropical Storm Tracking
New forecast layout! Learn more

10-Day Weather Forecast

Advertisements
Track Severe Weather on mobile